Time;durP1;ratioP1;P1;durP2;ratioP2;P2;SDS_P1;SDS_P2;PMS_P1;PMS_P2;Temp;Humidity;BMP_temperature;BMP_pressure;BME280_temperature;BME280_humidity;BME280_pressure;Samples;Min_cycle;Max_cycle;Signal;HPM_P1;HPM_P2
2022/04/21 00:00:32;;;;;;;3.78;2.88;;;8.60;99.90;;;;;;6219189;23;20023;-96
2022/04/21 00:03:11;;;;;;;5.47;2.80;;;8.60;99.90;;;;;;6218749;23;20038;-95
2022/04/21 00:06:00;;;;;;;4.47;2.67;;;8.60;99.90;;;;;;6218611;23;20047;-96
2022/04/21 00:08:29;;;;;;;4.07;2.75;;;8.50;99.90;;;;;;6193885;23;20492;-94
2022/04/21 00:10:58;;;;;;;3.53;2.08;;;8.40;99.90;;;;;;6219511;23;20035;-96
2022/04/21 00:14:12;;;;;;;6.05;2.92;;;8.30;99.90;;;;;;6194281;23;20085;-94
2022/04/21 00:17:00;;;;;;;3.97;2.65;;;8.40;99.90;;;;;;6242511;23;20095;-94
2022/04/21 00:19:46;;;;;;;;;;;7.20;99.90;;;;;;6217169;23;20016;-95
2022/04/21 00:26:09;;;;;;;2.25;2.15;;;8.20;99.90;;;;;;6217700;23;20476;-94
2022/04/21 00:28:58;;;;;;;4.55;4.25;;;8.30;99.90;;;;;;6193303;23;20344;-95
2022/04/21 00:31:41;;;;;;;4.28;2.30;;;8.10;99.90;;;;;;6196659;23;20027;-94
2022/04/21 00:34:26;;;;;;;3.38;2.28;;;8.20;99.90;;;;;;6194602;23;20023;-94
2022/04/21 00:37:10;;;;;;;4.20;3.17;;;8.20;99.90;;;;;;6219904;23;20495;-95
2022/04/21 00:39:51;;;;;;;;;;;;;;;;;;;;;
2022/04/21 00:42:43;;;;;;;4.53;3.35;;;8.40;99.90;;;;;;6220502;23;20074;-95
2022/04/21 00:45:20;;;;;;;4.93;2.75;;;8.20;99.90;;;;;;6219704;23;20044;-95
2022/04/21 00:48:15;;;;;;;4.10;3.30;;;8.10;99.90;;;;;;6194433;23;20511;-95
2022/04/21 00:51:01;;;;;;;5.00;2.90;;;8.30;99.90;;;;;;6219318;23;20052;-95
2022/04/21 00:53:30;;;;;;;8.60;3.53;;;8.20;99.90;;;;;;6220139;23;20016;-95
2022/04/21 00:56:09;;;;;;;7.03;2.67;;;8.00;99.90;;;;;;6220201;23;20031;-95
2022/04/21 00:58:43;;;;;;;3.97;3.53;;;7.20;99.90;;;;;;6194277;23;20031;-93
2022/04/21 01:04:50;;;;;;;5.53;3.20;;;8.20;99.90;;;;;;6219756;23;20028;-95
2022/04/21 01:07:33;;;;;;;4.13;2.45;;;7.90;99.90;;;;;;6211860;23;20027;-96
2022/04/21 01:10:33;;;;;;;5.07;2.47;;;7.20;99.90;;;;;;6195469;23;20020;-94
2022/04/21 01:13:51;;;;;;;5.05;2.95;;;8.00;99.90;;;;;;6196919;23;20020;-96
2022/04/21 01:16:55;;;;;;;3.03;2.70;;;7.90;99.90;;;;;;6193976;23;20031;-96
2022/04/21 01:20:20;;;;;;;;;;;;;;;;;;;;;
2022/04/21 01:26:52;;;;;;;5.13;3.55;;;8.90;99.90;;;;;;6217312;23;20028;-96
2022/04/21 01:29:43;;;;;;;;;;;;;;;;;;;;;
2022/04/21 01:32:31;;;;;;;3.80;2.65;;;6.50;99.90;;;;;;6220285;23;20013;-95
2022/04/21 01:35:48;;;;;;;5.57;3.30;;;7.40;99.90;;;;;;6195683;23;20076;-96
2022/04/21 01:41:35;;;;;;;4.75;3.05;;;7.40;99.90;;;;;;6214531;23;20020;-95
2022/04/21 01:44:03;;;;;;;2.83;2.55;;;7.20;99.90;;;;;;6193700;23;20020;-95
2022/04/21 01:46:38;;;;;;;7.15;4.47;;;6.40;99.90;;;;;;6196060;23;20012;-96
2022/04/21 01:49:27;;;;;;;4.32;3.15;;;6.10;99.90;;;;;;6219782;23;20020;-96
2022/04/21 01:52:23;;;;;;;5.65;3.80;;;7.10;99.90;;;;;;6194197;23;20020;-96
2022/04/21 01:55:16;;;;;;;5.15;3.30;;;7.00;99.90;;;;;;6222652;23;20111;-96
2022/04/21 01:58:02;;;;;;;;;;;;;;;;;;;;;
2022/04/21 02:01:06;;;;;;;;;;;;;;;;;;;;;
2022/04/21 02:03:45;;;;;;;4.93;3.75;;;6.10;99.90;;;;;;6218898;23;20020;-95
2022/04/21 02:06:37;;;;;;;4.20;3.20;;;7.10;99.90;;;;;;6195320;23;20018;-96
2022/04/21 02:09:33;;;;;;;3.72;2.85;;;7.90;99.90;;;;;;6218589;23;20020;-96
2022/04/21 02:12:06;;;;;;;4.78;3.78;;;7.20;99.90;;;;;;6193939;23;20103;-96
2022/04/21 02:14:54;;;;;;;4.03;3.22;;;7.10;99.90;;;;;;6244347;23;20038;-96
2022/04/21 02:17:33;;;;;;;;;;;;;;;;;;;;;
2022/04/21 02:20:03;;;;;;;6.25;4.18;;;7.20;99.90;;;;;;6188847;23;20043;-96
2022/04/21 02:22:41;;;;;;;6.47;4.50;;;7.20;99.90;;;;;;6165800;23;20441;-95
2022/04/21 02:25:58;;;;;;;5.43;4.43;;;8.10;99.90;;;;;;6165063;23;20024;-95
2022/04/21 02:29:17;;;;;;;5.72;3.40;;;8.30;99.90;;;;;;6192158;23;20032;-96
2022/04/21 02:31:59;;;;;;;6.45;3.58;;;7.20;99.90;;;;;;6187011;23;20027;-94
2022/04/21 02:34:53;;;;;;;;;;;;;;;;;;;;;
2022/04/21 02:37:35;;;;;;;5.20;3.78;;;6.10;99.90;;;;;;6189481;23;20016;-95
2022/04/21 02:40:16;;;;;;;;;;;;;;;;;;;;;
2022/04/21 02:43:16;;;;;;;;;;;;;;;;;;;;;
2022/04/21 02:46:13;;;;;;;;;;;;;;;;;;;;;
2022/04/21 02:49:13;;;;;;;7.20;4.05;;;7.10;99.90;;;;;;6189122;23;20437;-96
2022/04/21 02:51:50;;;;;;;3.47;2.85;;;8.20;99.90;;;;;;6164674;23;20072;-96
2022/04/21 02:57:45;;;;;;;5.88;3.55;;;6.20;99.90;;;;;;6215549;23;20025;-96
2022/04/21 03:00:49;;;;;;;11.75;4.78;;;6.90;99.90;;;;;;6166082;23;20023;-96
2022/04/21 03:04:01;;;;;;;;;;;;;;;;;;;;;
2022/04/21 03:07:05;;;;;;;;;;;;;;;;;;;;;
2022/04/21 03:12:50;;;;;;;5.22;3.78;;;6.90;99.90;;;;;;6160536;23;20483;-94
2022/04/21 03:16:14;;;;;;;6.57;4.03;;;6.80;99.90;;;;;;6191889;23;20349;-96
2022/04/21 03:19:05;;;;;;;3.80;3.33;;;5.90;99.90;;;;;;6188595;23;20507;-96
2022/04/21 03:25:17;;;;;;;;;;;;;;;;;;;;;
2022/04/21 03:28:38;;;;;;;;;;;;;;;;;;;;;
2022/04/21 03:31:08;;;;;;;5.15;3.90;;;6.70;99.90;;;;;;6215134;23;20032;-96
2022/04/21 03:33:50;;;;;;;5.15;3.85;;;6.80;99.90;;;;;;6189409;23;20437;-96
2022/04/21 03:36:19;;;;;;;5.93;3.60;;;6.40;99.90;;;;;;6165075;23;20071;-96
2022/04/21 03:38:47;;;;;;;5.25;4.15;;;8.10;99.90;;;;;;6188973;23;20039;-96
2022/04/21 03:41:20;;;;;;;6.95;4.20;;;7.50;99.90;;;;;;6188126;23;20022;-96
2022/04/21 03:44:02;;;;;;;6.47;4.55;;;6.70;99.90;;;;;;6190457;23;20025;-95
2022/04/21 03:46:43;;;;;;;6.63;3.85;;;7.10;99.90;;;;;;6166665;23;20444;-96
2022/04/21 03:49:31;;;;;;;7.50;4.70;;;6.50;99.90;;;;;;6186109;23;20029;-96
2022/04/21 03:52:18;;;;;;;4.95;3.63;;;5.80;99.90;;;;;;6213197;23;20020;-95
2022/04/21 03:54:57;;;;;;;4.90;4.05;;;7.30;99.90;;;;;;6188719;23;20123;-95
2022/04/21 03:57:33;;;;;;;5.78;3.53;;;7.40;99.90;;;;;;6189474;23;20024;-95
2022/04/21 04:00:07;;;;;;;7.72;4.47;;;5.70;99.90;;;;;;6187882;23;20020;-95
2022/04/21 04:02:51;;;;;;;9.82;5.18;;;6.20;99.90;;;;;;6189045;23;20488;-95
2022/04/21 04:05:45;;;;;;;12.65;4.53;;;6.40;99.90;;;;;;6188899;23;20034;-95
2022/04/21 04:11:10;;;;;;;7.78;4.28;;;6.30;99.90;;;;;;6218691;23;20028;-94
2022/04/21 04:13:45;;;;;;;;;;;6.30;99.90;;;;;;6215295;23;20024;-95
2022/04/21 04:16:19;;;;;;;4.80;4.30;;;6.20;99.90;;;;;;6166095;23;19916;-96
2022/04/21 04:19:03;;;;;;;;;;;;;;;;;;;;;
2022/04/21 04:22:09;;;;;;;5.95;3.90;;;6.10;99.90;;;;;;6214831;23;20091;-96
2022/04/21 04:24:50;;;;;;;7.13;4.40;;;6.20;99.90;;;;;;6189901;23;20020;-96
2022/04/21 04:27:36;;;;;;;7.05;4.20;;;6.60;99.90;;;;;;6190142;23;20020;-96
2022/04/21 04:30:04;;;;;;;5.18;4.68;;;6.10;99.90;;;;;;6188122;23;20051;-93
2022/04/21 04:32:51;;;;;;;5.53;4.15;;;6.10;99.90;;;;;;6189347;23;20453;-96
2022/04/21 04:35:25;;;;;;;8.07;3.72;;;5.20;99.90;;;;;;6187500;23;20024;-96
2022/04/21 04:38:05;;;;;;;5.65;3.65;;;5.90;99.90;;;;;;6188712;23;20021;-96
2022/04/21 04:40:31;;;;;;;6.28;4.65;;;6.00;99.90;;;;;;6189002;23;20021;-96
2022/04/21 04:43:03;;;;;;;5.93;4.43;;;5.20;99.90;;;;;;6190191;23;20112;-93
2022/04/21 04:48:25;;;;;;;10.20;4.53;;;5.90;99.90;;;;;;6213769;23;20028;-96
2022/04/21 04:51:01;;;;;;;7.32;3.85;;;5.90;99.90;;;;;;6189868;23;20075;-96
2022/04/21 04:53:51;;;;;;;7.60;4.60;;;6.00;99.90;;;;;;6190015;23;20091;-96
2022/04/21 04:56:31;;;;;;;;;;;;;;;;;;;;;
2022/04/21 04:59:15;;;;;;;5.07;3.95;;;6.80;99.90;;;;;;6213915;23;20020;-96
2022/04/21 05:01:49;;;;;;;7.57;4.15;;;6.00;99.90;;;;;;6187921;23;20013;-96
2022/04/21 05:04:29;;;;;;;;;;;;;;;;;;;;;
2022/04/21 05:07:08;;;;;;;5.22;3.60;;;6.10;99.90;;;;;;6214004;23;20055;-96
2022/04/21 05:09:37;;;;;;;6.88;4.22;;;5.30;99.90;;;;;;6189182;23;20020;-96
2022/04/21 05:12:09;;;;;;;6.10;4.10;;;6.20;99.90;;;;;;6188713;23;20070;-96
2022/04/21 05:14:38;;;;;;;5.65;4.18;;;6.50;99.90;;;;;;6188678;23;20017;-96
2022/04/21 05:17:17;;;;;;;7.82;3.88;;;6.00;99.90;;;;;;6191099;23;20095;-96
2022/04/21 05:19:54;;;;;;;5.82;4.00;;;6.20;99.90;;;;;;6189048;23;20102;-96
2022/04/21 05:22:37;;;;;;;;;;;;;;;;;;;;;
2022/04/21 05:25:40;;;;;;;7.63;4.15;;;6.30;99.90;;;;;;6215166;23;20016;-96
2022/04/21 05:28:32;;;;;;;;;;;;;;;;;;;;;
2022/04/21 05:31:09;;;;;;;4.78;4.05;;;7.00;99.90;;;;;;6214824;23;20012;-94
2022/04/21 05:33:37;;;;;;;7.80;3.70;;;7.30;99.90;;;;;;6191165;23;20012;-96
2022/04/21 05:36:06;;;;;;;6.05;3.78;;;7.50;99.90;;;;;;6190296;23;20020;-96
2022/04/21 05:38:46;;;;;;;5.15;3.33;;;7.90;99.90;;;;;;6190295;23;20016;-96
2022/04/21 05:41:14;;;;;;;4.00;3.60;;;8.10;99.90;;;;;;6190140;23;20027;-96
2022/04/21 05:43:50;;;;;;;6.10;3.00;;;7.40;99.90;;;;;;6192120;23;20080;-96
2022/04/21 05:46:26;;;;;;;5.45;3.58;;;7.80;99.90;;;;;;6190265;23;20038;-96
2022/04/21 05:49:45;;;;;;;;;;;;;;;;;;;;;
2022/04/21 05:52:25;;;;;;;5.13;3.60;;;8.30;99.90;;;;;;6215299;23;20087;-96
2022/04/21 05:55:06;;;;;;;5.85;3.80;;;9.50;99.90;;;;;;6192318;23;20012;-96
2022/04/21 05:58:10;;;;;;;;;;;;;;;;;;;;;
2022/04/21 06:04:42;;;;;;;4.22;3.40;;;10.20;99.90;;;;;;6216360;23;20471;-95
2022/04/21 06:07:26;;;;;;;6.18;3.85;;;10.40;99.90;;;;;;6161415;23;20487;-93
2022/04/21 06:09:54;;;;;;;5.22;2.97;;;10.00;99.90;;;;;;6191085;23;20021;-87
2022/04/21 06:12:19;;;;;;;4.85;2.60;;;10.80;99.90;;;;;;6188149;23;20029;-91
2022/04/21 06:14:50;;;;;;;4.73;2.70;;;10.90;99.90;;;;;;6188350;23;20025;-93
2022/04/21 06:17:16;;;;;;;2.75;2.42;;;11.00;99.90;;;;;;6187786;23;20264;-90
2022/04/21 06:19:44;;;;;;;3.83;3.43;;;11.20;99.90;;;;;;6213657;23;20105;-89
2022/04/21 06:22:12;;;;;;;4.15;2.45;;;11.00;99.90;;;;;;6188020;23;20020;-88
2022/04/21 06:24:41;;;;;;;4.85;2.20;;;11.40;99.90;;;;;;6187923;23;20441;-87
2022/04/21 06:27:12;;;;;;;5.68;2.97;;;11.50;99.90;;;;;;6187841;23;20028;-92
2022/04/21 06:29:38;;;;;;;7.57;3.10;;;11.70;99.90;;;;;;6188748;23;20055;-90
2022/04/21 06:32:08;;;;;;;3.70;1.92;;;11.80;99.90;;;;;;6211969;23;20388;-91
2022/04/21 06:34:45;;;;;;;4.07;2.40;;;12.10;99.90;;;;;;6212507;23;20012;-89
2022/04/21 06:37:10;;;;;;;2.95;2.40;;;12.20;99.90;;;;;;6212397;23;20017;-90
2022/04/21 06:39:42;;;;;;;3.35;2.40;;;12.20;99.90;;;;;;6187572;23;20148;-90
2022/04/21 06:42:10;;;;;;;4.95;2.75;;;12.40;99.90;;;;;;6187879;23;20016;-90
2022/04/21 06:48:16;;;;;;;3.80;2.30;;;12.80;99.90;;;;;;6216383;23;20016;-92
2022/04/21 06:50:55;;;;;;;3.28;2.55;;;13.00;99.90;;;;;;6214764;23;20025;-91
2022/04/21 06:53:26;;;;;;;2.83;2.33;;;13.10;99.90;;;;;;6187204;23;20047;-92
2022/04/21 06:56:05;;;;;;;3.38;2.25;;;13.20;99.90;;;;;;6187072;23;20479;-92
2022/04/21 06:59:15;;;;;;;4.30;2.92;;;13.40;99.90;;;;;;6212659;23;20075;-95
2022/04/21 07:02:31;;;;;;;3.13;2.10;;;13.70;99.90;;;;;;6190008;23;20136;-95
2022/04/21 07:05:11;;;;;;;1.95;1.83;;;13.80;99.40;;;;;;6148705;23;20371;-88
2022/04/21 07:08:10;;;;;;;;;;;;;;;;;;;;;
2022/04/21 07:11:22;;;;;;;2.67;1.88;;;14.30;98.10;;;;;;6201936;23;20018;-96
2022/04/21 07:13:58;;;;;;;3.13;1.95;;;14.30;96.40;;;;;;6195041;23;20401;-94
2022/04/21 07:16:24;;;;;;;3.00;1.67;;;14.40;96.10;;;;;;6192368;23;20016;-92
2022/04/21 07:18:50;;;;;;;5.72;2.92;;;14.70;96.70;;;;;;6193793;23;20048;-91
2022/04/21 07:21:16;;;;;;;2.38;2.13;;;14.70;95.70;;;;;;6192768;23;20043;-93
2022/04/21 07:23:45;;;;;;;2.13;1.90;;;14.70;94.70;;;;;;6166553;23;20530;-90
2022/04/21 07:26:11;;;;;;;2.17;1.77;;;14.90;94.10;;;;;;6217299;23;20023;-89
2022/04/21 07:28:42;;;;;;;3.30;1.90;;;14.90;93.00;;;;;;6191114;23;20020;-87
2022/04/21 07:31:08;;;;;;;4.05;1.98;;;15.00;92.40;;;;;;6192324;23;20023;-87
2022/04/21 07:33:34;;;;;;;5.65;2.25;;;15.10;91.90;;;;;;6191353;23;20082;-90
2022/04/21 07:36:16;;;;;;;2.35;1.75;;;15.20;91.30;;;;;;6195930;23;20024;-96
2022/04/21 07:39:10;;;;;;;2.97;1.60;;;15.40;90.40;;;;;;6171750;23;20445;-92
2022/04/21 07:41:51;;;;;;;;;;;;;;;;;;;;;
2022/04/21 07:44:28;;;;;;;2.70;1.90;;;16.00;89.30;;;;;;6218386;23;20035;-96
2022/04/21 07:47:23;;;;;;;;;;;16.30;87.90;;;;;;6194626;23;20024;-93
2022/04/21 07:50:19;;;;;;;2.22;1.17;;;16.40;83.00;;;;;;6200236;23;19915;-96
2022/04/21 07:53:16;;;;;;;2.30;1.65;;;16.20;86.50;;;;;;6195081;23;20062;-96
2022/04/21 07:55:47;;;;;;;1.45;1.35;;;16.50;82.60;;;;;;6192461;23;20024;-92
2022/04/21 07:58:30;;;;;;;2.78;2.38;;;15.80;83.80;;;;;;6218808;23;20059;-91
2022/04/21 08:01:19;;;;;;;2.85;1.83;;;16.60;82.00;;;;;;6194876;23;20054;-94
2022/04/21 08:07:53;;;;;;;4.72;1.50;;;17.10;77.20;;;;;;6153954;23;20045;-95
2022/04/21 08:10:27;;;;;;;1.25;1.15;;;17.40;72.80;;;;;;6134478;23;20100;-90
2022/04/21 08:13:14;;;;;;;1.65;1.38;;;17.30;78.10;;;;;;6166913;23;20075;-96
2022/04/21 08:16:04;;;;;;;2.35;1.02;;;17.10;74.70;;;;;;6214799;23;20024;-93
2022/04/21 08:18:52;;;;;;;;;;;;;;;;;;;;;
2022/04/21 08:21:48;;;;;;;;;;;;;;;;;;;;;
2022/04/21 08:33:45;;;;;;;4.93;1.70;;;17.70;69.60;;;;;;6213424;23;20075;-90
2022/04/21 08:36:22;;;;;;;2.75;1.40;;;17.90;71.50;;;;;;6190100;23;20433;-91
2022/04/21 08:39:00;;;;;;;2.88;1.88;;;17.80;70.70;;;;;;6187540;23;20337;-90
2022/04/21 08:41:43;;;;;;;1.67;1.40;;;17.10;68.90;;;;;;6166796;23;20021;-91
2022/04/21 08:44:32;;;;;;;2.30;1.45;;;17.80;69.20;;;;;;6188411;23;20086;-91
2022/04/21 08:47:09;;;;;;;7.70;1.55;;;17.90;70.60;;;;;;6187794;23;20016;-92
2022/04/21 08:50:12;;;;;;;;;;;;;;;;;;;;;
2022/04/21 08:52:54;;;;;;;;;;;;;;;;;;;;;
2022/04/21 08:55:28;;;;;;;3.88;1.92;;;18.40;69.50;;;;;;6191695;23;20023;-91
2022/04/21 08:58:26;;;;;;;2.10;1.85;;;18.40;68.00;;;;;;6168927;23;20017;-90
2022/04/21 09:01:07;;;;;;;;;;;;;;;;;;;;;
2022/04/21 09:03:41;;;;;;;2.63;1.92;;;17.90;68.00;;;;;;6215156;23;20023;-91
2022/04/21 09:06:58;;;;;;;1.63;1.42;;;18.70;68.60;;;;;;6169879;23;20020;-91
2022/04/21 09:10:08;;;;;;;2.90;1.50;;;18.60;64.90;;;;;;6219262;23;20036;-91
2022/04/21 09:13:14;;;;;;;;;;;;;;;;;;;;;
2022/04/21 09:16:06;;;;;;;2.08;1.63;;;18.80;65.50;;;;;;6218953;23;20012;-92
2022/04/21 09:21:56;;;;;;;;;;;;;;;;;;;;;
2022/04/21 09:24:50;;;;;;;1.48;1.38;;;18.80;65.30;;;;;;6219653;23;20099;-90
2022/04/21 09:27:23;;;;;;;2.28;1.75;;;18.90;66.30;;;;;;6184937;23;20110;-91
2022/04/21 09:30:05;;;;;;;2.60;1.38;;;18.80;65.70;;;;;;6171270;23;20507;-90
2022/04/21 09:33:05;;;;;;;2.05;1.40;;;18.70;64.30;;;;;;6194928;23;20059;-92
2022/04/21 09:35:47;;;;;;;3.05;1.77;;;18.70;64.10;;;;;;6221021;23;20099;-92
2022/04/21 09:38:18;;;;;;;3.53;1.92;;;18.50;65.00;;;;;;6194432;23;20058;-90
2022/04/21 09:41:00;;;;;;;;;;;;;;;;;;;;;
2022/04/21 09:43:43;;;;;;;;;;;;;;;;;;;;;
2022/04/21 09:46:43;;;;;;;1.77;1.67;;;19.00;64.80;;;;;;6219744;23;20436;-91
2022/04/21 09:50:00;;;;;;;2.28;1.40;;;18.80;64.40;;;;;;6194663;23;20016;-91
2022/04/21 09:53:07;;;;;;;1.50;1.27;;;18.00;62.50;;;;;;6219574;23;20078;-92
2022/04/21 09:56:33;;;;;;;2.05;1.63;;;18.40;64.20;;;;;;6169902;23;20016;-92
2022/04/21 09:59:18;;;;;;;1.88;1.45;;;18.90;64.40;;;;;;6148723;23;20102;-91
2022/04/21 10:02:03;;;;;;;;;;;;;;;;;;;;;
2022/04/21 10:04:42;;;;;;;2.42;1.70;;;19.10;65.10;;;;;;6198157;23;20452;-90
2022/04/21 10:07:10;;;;;;;1.75;1.40;;;18.30;63.90;;;;;;6193326;23;20081;-90
2022/04/21 10:09:55;;;;;;;3.20;1.60;;;18.10;65.20;;;;;;6194226;23;20016;-90
2022/04/21 10:12:31;;;;;;;;;;;;;;;;;;;;;
2022/04/21 10:15:01;;;;;;;3.17;1.88;;;18.30;64.90;;;;;;6218357;23;20012;-90
2022/04/21 10:17:39;;;;;;;2.58;1.92;;;18.50;64.70;;;;;;6194229;23;20436;-90
2022/04/21 10:20:10;;;;;;;1.70;1.42;;;18.50;63.50;;;;;;6194369;23;20016;-91
2022/04/21 10:22:42;;;;;;;1.77;1.55;;;18.50;63.80;;;;;;6193589;23;20056;-91
2022/04/21 10:25:43;;;;;;;;;;;;;;;;;;;;;
2022/04/21 10:28:35;;;;;;;;;;;19.10;63.50;;;;;;6200139;23;20012;-91
2022/04/21 10:31:30;;;;;;;2.00;1.55;;;17.80;61.40;;;;;;6193557;23;19951;-90
2022/04/21 10:34:06;;;;;;;1.90;1.80;;;18.80;62.70;;;;;;6218275;23;20020;-92
2022/04/21 10:37:19;;;;;;;;;;;;;;;;;;;;;
2022/04/21 10:40:38;;;;;;;2.25;1.70;;;18.90;61.80;;;;;;6219272;23;20091;-91
2022/04/21 10:43:15;;;;;;;1.17;1.02;;;18.90;62.70;;;;;;6081649;23;20049;-91
2022/04/21 10:46:05;;;;;;;1.55;1.10;;;19.10;63.00;;;;;;6081038;23;20073;-91
2022/04/21 10:48:58;;;;;;;3.72;1.80;;;19.40;61.10;;;;;;6102995;23;20024;-91
2022/04/21 10:57:48;;;;;;;3.17;1.23;;;19.40;60.70;;;;;;6219256;23;20583;-91
2022/04/21 11:00:46;;;;;;;;;;;;;;;;;;;;;
2022/04/21 11:03:38;;;;;;;2.67;1.50;;;19.80;59.50;;;;;;6174616;23;20475;-91
2022/04/21 11:06:11;;;;;;;3.67;1.38;;;20.20;59.30;;;;;;6170858;23;20056;-91
2022/04/21 11:09:15;;;;;;;4.47;1.65;;;20.00;58.10;;;;;;6193384;23;20047;-91
2022/04/21 11:12:08;;;;;;;1.83;1.50;;;19.90;57.90;;;;;;6193871;23;20016;-92
2022/04/21 11:15:05;;;;;;;;;;;;;;;;;;;;;
2022/04/21 11:18:01;;;;;;;1.80;1.42;;;19.20;59.30;;;;;;6218386;23;20066;-92
2022/04/21 11:23:24;;;;;;;2.28;1.48;;;19.80;59.10;;;;;;6179192;23;20024;-91
2022/04/21 11:29:09;;;;;;;;;;;;;;;;;;;;;
2022/04/21 11:31:51;;;;;;;0.88;0.80;;;19.90;58.30;;;;;;6199333;23;20023;-92
2022/04/21 11:34:50;;;;;;;1.75;1.42;;;20.60;57.80;;;;;;6193457;23;20020;-92
2022/04/21 11:37:21;;;;;;;1.80;1.70;;;20.30;57.70;;;;;;6170677;23;20388;-91
2022/04/21 11:42:54;;;;;;;2.50;1.80;;;20.20;57.90;;;;;;6175599;23;20074;-91
2022/04/21 11:45:44;;;;;;;2.85;1.80;;;20.10;58.60;;;;;;6170793;23;20027;-92
2022/04/21 11:48:20;;;;;;;3.03;1.92;;;19.60;58.50;;;;;;6194899;23;20020;-93
2022/04/21 11:50:56;;;;;;;1.63;1.50;;;19.70;57.50;;;;;;6169252;23;20020;-92
2022/04/21 11:53:43;;;;;;;;;;;;;;;;;;;;;
2022/04/21 11:56:11;;;;;;;1.90;1.75;;;21.00;58.80;;;;;;6217620;23;20050;-91
2022/04/21 11:58:53;;;;;;;2.42;1.30;;;21.00;56.50;;;;;;6193037;23;20031;-92
2022/04/21 12:07:29;;;;;;;;;;;;;;;;;;;;;
2022/04/21 12:10:09;;;;;;;3.53;2.20;;;20.20;57.80;;;;;;6213500;23;20032;-92
2022/04/21 12:12:38;;;;;;;1.98;1.67;;;20.30;56.70;;;;;;6188094;23;20471;-91
2022/04/21 12:15:17;;;;;;;4.43;1.58;;;20.20;56.60;;;;;;6188472;23;20017;-92
2022/04/21 12:17:50;;;;;;;4.38;1.65;;;20.30;56.80;;;;;;6188428;23;20024;-92
2022/04/21 12:20:36;;;;;;;4.65;2.00;;;19.70;56.10;;;;;;6163786;23;20027;-91
2022/04/21 12:23:23;;;;;;;3.13;1.70;;;20.10;56.30;;;;;;6167185;23;20021;-92
2022/04/21 12:26:15;;;;;;;2.13;1.63;;;20.60;55.80;;;;;;6169931;23;20027;-91
2022/04/21 12:28:57;;;;;;;3.20;2.03;;;20.40;56.40;;;;;;6190444;23;20020;-91
2022/04/21 12:31:50;;;;;;;2.15;1.75;;;20.50;56.50;;;;;;6189471;23;20154;-91
2022/04/21 12:34:29;;;;;;;2.88;1.70;;;20.60;56.30;;;;;;6189665;23;20021;-92
2022/04/21 12:37:13;;;;;;;1.90;1.48;;;20.80;55.50;;;;;;6191282;23;20095;-91
2022/04/21 12:39:47;;;;;;;1.48;1.38;;;20.80;54.90;;;;;;6191127;23;20023;-92
2022/04/21 12:42:19;;;;;;;2.10;1.90;;;21.50;56.40;;;;;;6191297;23;20024;-91
2022/04/21 12:45:05;;;;;;;4.72;1.75;;;21.00;56.10;;;;;;6190350;23;20016;-92
2022/04/21 12:48:02;;;;;;;3.30;1.90;;;20.90;55.70;;;;;;6190611;23;20017;-92
2022/04/21 12:54:08;;;;;;;;;;;;;;;;;;;;;
2022/04/21 12:56:48;;;;;;;5.40;1.90;;;20.90;56.10;;;;;;6193239;23;20036;-91
2022/04/21 12:59:24;;;;;;;3.95;1.75;;;20.70;56.30;;;;;;6167480;23;20017;-93
2022/04/21 13:02:15;;;;;;;2.25;1.80;;;21.10;57.20;;;;;;6166853;23;20017;-92
2022/04/21 13:04:43;;;;;;;2.00;1.70;;;20.50;57.40;;;;;;6190292;23;20070;-91
2022/04/21 13:13:41;;;;;;;4.40;2.50;;;20.80;56.30;;;;;;6214592;23;20126;-92
2022/04/21 13:16:43;;;;;;;2.72;2.05;;;20.70;56.60;;;;;;6167310;23;20028;-91
2022/04/21 13:19:33;;;;;;;;;;;;;;;;;;;;;
2022/04/21 13:28:36;;;;;;;2.53;2.10;;;21.50;56.10;;;;;;6175813;23;20024;-92
2022/04/21 13:37:24;;;;;;;4.82;1.92;;;21.80;56.00;;;;;;6183868;23;20074;-92
2022/04/21 13:40:15;;;;;;;3.97;2.53;;;21.10;55.40;;;;;;6169014;23;20179;-93
2022/04/21 13:43:37;;;;;;;3.15;2.10;;;21.60;55.70;;;;;;6166891;23;20021;-94
2022/04/21 13:53:15;;;;;;;3.13;2.28;;;20.80;57.10;;;;;;6185263;23;20020;-94
2022/04/21 13:58:56;;;;;;;2.95;1.80;;;21.00;57.80;;;;;;6187883;23;20021;-92
2022/04/21 14:01:50;;;;;;;1.67;1.58;;;21.10;58.00;;;;;;6166231;23;20024;-94
2022/04/21 14:08:37;;;;;;;;;;;;;;;;;;;;;
2022/04/21 14:11:43;;;;;;;;;;;;;;;;;;;;;
2022/04/21 14:14:57;;;;;;;;;;;;;;;;;;;;;
2022/04/21 14:18:01;;;;;;;5.95;2.33;;;21.10;58.10;;;;;;6052963;23;20467;-94
2022/04/21 14:21:18;;;;;;;1.80;1.70;;;20.90;57.70;;;;;;6047892;23;20451;-93
2022/04/21 14:24:52;;;;;;;2.58;1.80;;;21.10;56.90;;;;;;6095356;23;20065;-94
2022/04/21 14:30:44;;;;;;;3.97;2.20;;;21.80;56.80;;;;;;6069873;23;20162;-94
2022/04/21 14:33:43;;;;;;;3.60;2.20;;;22.20;56.90;;;;;;6072167;23;20022;-93
2022/04/21 14:36:58;;;;;;;;;;;;;;;;;;;;;
2022/04/21 14:46:44;;;;;;;;;;;;;;;;;;;;;
2022/04/21 14:50:02;;;;;;;7.03;2.78;;;21.00;58.20;;;;;;6162391;23;20017;-93
2022/04/21 14:53:36;;;;;;;;;;;;;;;;;;;;;
2022/04/21 14:56:48;;;;;;;;;;;;;;;;;;;;;
2022/04/21 15:03:10;;;;;;;;;;;;;;;;;;;;;
2022/04/21 15:06:17;;;;;;;2.80;2.55;;;21.40;59.70;;;;;;6188212;23;20074;-94
2022/04/21 15:09:51;;;;;;;3.80;2.35;;;20.90;60.20;;;;;;6192424;23;20341;-95
2022/04/21 15:12:59;;;;;;;;;;;;;;;;;;;;;
2022/04/21 15:15:53;;;;;;;;;;;;;;;;;;;;;
2022/04/21 15:25:34;;;;;;;3.72;2.55;;;20.70;59.90;;;;;;6174751;23;20027;-94
2022/04/21 15:28:53;;;;;;;;;;;;;;;;;;;;;
2022/04/21 15:36:49;;;;;;;;;;;;;;;;;;;;;
2022/04/21 19:01:27;;;;;;;5.25;3.45;;;14.30;87.30;;;;;;5106876;27;20611;-92
2022/04/21 19:07:04;;;;;;;4.60;2.88;;;14.20;88.40;;;;;;5050112;28;20145;-93
2022/04/21 19:12:46;;;;;;;6.90;3.30;;;14.30;89.30;;;;;;5072603;28;20102;-92
2022/04/21 19:15:15;;;;;;;3.58;2.65;;;15.00;89.50;;;;;;5086382;28;20051;-87
2022/04/21 19:17:44;;;;;;;4.15;2.78;;;14.10;89.60;;;;;;5074238;28;20067;-91
2022/04/21 19:20:11;;;;;;;7.53;3.25;;;14.20;90.20;;;;;;5082051;28;20045;-86
2022/04/21 19:22:37;;;;;;;4.93;3.17;;;14.00;90.00;;;;;;5076506;28;20040;-85
2022/04/21 19:25:03;;;;;;;6.60;3.43;;;14.00;90.20;;;;;;5074808;28;20404;-89
2022/04/21 19:27:40;;;;;;;5.93;3.13;;;14.00;90.20;;;;;;5084653;28;20307;-89
2022/04/21 19:30:07;;;;;;;8.02;2.80;;;14.00;90.60;;;;;;5073445;28;20058;-88
2022/04/21 19:32:35;;;;;;;4.05;3.10;;;13.90;90.40;;;;;;5067014;28;20049;-88
2022/04/21 19:35:04;;;;;;;7.13;3.30;;;13.00;90.50;;;;;;5055208;28;20037;-90
2022/04/21 19:37:30;;;;;;;4.93;3.03;;;13.90;91.30;;;;;;5072933;28;20100;-89
2022/04/21 19:39:56;;;;;;;2.73;2.43;;;13.30;90.90;;;;;;5048664;28;20132;-89
2022/04/21 19:42:26;;;;;;;6.28;2.75;;;14.00;91.20;;;;;;5048110;28;20659;-90
2022/04/21 19:44:54;;;;;;;3.70;2.83;;;13.80;91.80;;;;;;5051025;28;20448;-90
2022/04/21 19:47:20;;;;;;;4.25;2.53;;;13.20;91.50;;;;;;5071594;28;20049;-87
2022/04/21 19:49:48;;;;;;;11.97;2.77;;;13.90;91.80;;;;;;5068858;28;20102;-88
2022/04/21 19:52:23;;;;;;;3.67;2.17;;;13.80;91.90;;;;;;5074527;28;20044;-89
2022/04/21 19:54:51;;;;;;;6.93;3.35;;;13.80;92.30;;;;;;5071437;28;20052;-90
2022/04/21 19:57:17;;;;;;;3.10;2.30;;;13.80;92.20;;;;;;5082838;28;20076;-89
2022/04/21 19:59:51;;;;;;;3.00;2.33;;;14.50;92.50;;;;;;5080339;28;20083;-90
2022/04/21 20:02:27;;;;;;;4.35;2.65;;;13.80;92.30;;;;;;5068616;28;20079;-90
2022/04/21 20:04:56;;;;;;;4.10;2.45;;;13.80;92.30;;;;;;5084594;28;20044;-89
2022/04/21 20:10:06;;;;;;;2.78;2.45;;;13.80;92.10;;;;;;5097791;28;20121;-93
2022/04/21 20:12:37;;;;;;;4.97;3.13;;;13.80;92.30;;;;;;5042694;28;20057;-89
2022/04/21 20:15:11;;;;;;;8.43;3.92;;;13.80;92.40;;;;;;5058575;28;20052;-93
2022/04/21 20:17:38;;;;;;;4.28;2.78;;;13.80;92.40;;;;;;5044044;28;20049;-93
2022/04/21 20:22:53;;;;;;;3.80;2.15;;;13.80;92.20;;;;;;5058981;28;20115;-96
2022/04/21 20:28:15;;;;;;;7.97;2.65;;;13.70;92.50;;;;;;5047592;28;20106;-89
2022/04/21 20:30:41;;;;;;;3.20;2.33;;;13.70;92.60;;;;;;5071278;28;20097;-95
2022/04/21 20:33:24;;;;;;;;;;;;;;;;;;;;;
2022/04/21 20:35:53;;;;;;;4.18;2.45;;;12.60;92.50;;;;;;5051137;28;20045;-90
2022/04/21 20:38:19;;;;;;;3.83;2.50;;;13.70;92.60;;;;;;5021066;28;20041;-92
2022/04/21 20:40:44;;;;;;;3.60;2.13;;;13.80;92.60;;;;;;5041429;28;20042;-91
2022/04/21 20:43:10;;;;;;;3.53;2.30;;;13.80;92.70;;;;;;5051740;28;20859;-90
2022/04/21 20:45:36;;;;;;;4.83;2.67;;;13.50;92.50;;;;;;5042664;28;20090;-89
2022/04/21 20:48:02;;;;;;;6.68;2.63;;;13.00;92.40;;;;;;5029188;28;20099;-91
2022/04/21 20:50:28;;;;;;;3.25;2.30;;;13.50;92.70;;;;;;5083494;28;20055;-91
2022/04/21 20:52:54;;;;;;;8.80;2.30;;;13.60;92.80;;;;;;5068842;28;20036;-92
2022/04/21 20:55:20;;;;;;;3.87;2.50;;;13.40;92.80;;;;;;5068590;28;20556;-91
2022/04/21 20:57:49;;;;;;;4.53;2.42;;;13.50;92.80;;;;;;5057916;28;20044;-94
2022/04/21 21:00:16;;;;;;;2.17;1.77;;;13.50;93.00;;;;;;5044322;28;20056;-95
2022/04/21 21:02:42;;;;;;;5.55;2.65;;;13.40;92.90;;;;;;5043445;28;20132;-92
2022/04/21 21:05:11;;;;;;;4.03;2.20;;;13.30;93.00;;;;;;5020440;28;20475;-91
2022/04/21 21:07:37;;;;;;;3.87;2.30;;;13.70;93.20;;;;;;5086472;28;20037;-91
2022/04/21 21:10:06;;;;;;;2.30;1.98;;;13.40;93.20;;;;;;5039145;28;20387;-93
2022/04/21 21:12:32;;;;;;;2.45;2.25;;;13.50;93.40;;;;;;5035748;28;20045;-91
2022/04/21 21:14:58;;;;;;;2.20;2.00;;;13.50;93.20;;;;;;5052854;28;20045;-90
2022/04/21 21:17:24;;;;;;;3.13;2.15;;;13.50;93.40;;;;;;5060469;28;20041;-91